Airfield :
LOGIN :

Register | Disclaimer

   EN    FR    IT 

 










Legend :    VFR   Marginal VFR   IFR   Intensive IFR   Very Intensive IFR
Visi :
Ceiling :
>= 8 km
>= 3000ft
5 to 8 km
1000 to 3000 ft
1500m to 5 km
500 to 1000 ft
800 to 1500m
200 to 500 ft
< 800m
< 200 ft
Symbols :   Thunderstorms  Fog  Heavy snow  Heavy precipitations  Wind > 20 kt
SIGMETs :     Misc.  Thunderstorms  Icing  Turbulence  Mountain Waves  Volcanic Ashes







- Airport Elevation : 1860 ft
- IATA code : GRX


LEGR - Granada

CURRENT METAR :
  • 210430Z AUTO 23002KT 6000 NCD 00/M00 Q1029

EXPIRED METARs :
  • 210400Z AUTO 25001KT 8000 NCD 00/M01 Q1029
  • 210330Z AUTO 00000KT 6000 NCD 01/01 Q1029
  • 210300Z AUTO 00000KT 7000 NCD 01/01 Q1029
  • 210230Z AUTO 00000KT 8000 NSC 02/01 Q1030
  • 210200Z AUTO 00000KT CAVOK 01/00 Q1030

TAF TAF LEGR
Valid from the 21 at 03:00 until the 22 at 03:00 UTC


210200Z 2103/2203 29004KT CAVOK TX19/2115Z TN00/2107Z
No reported NOTAMs for that airfield.



MET'MAP, your aeronautical weather chart ! - Copyright ORBIFLY December 2007 - Disclaimer

ORBIFLY MET'MAP TEAM :

Programming & Development : Alexandra Zaïnal
Concept & Development : Baudouin d'Aumeries
Co-Development & Prog : Marc-Olivier Méhu
Technical & hardware support : Manuel Goepfert

Contact : metmap@orbifly.com




SOURCES & CREDITS :

   NOAA